45.2°F
Current conditions from King Hill
Updated every 5 minutes
 
  Friday October 24, 2014

Station Historical Data
Daily Summary for September 21, 2011 Units:  Both    English   Metric
« Previous Day
Next Day »
Daily Weekly Monthly Yearly Custom
  High: Low: Average:
Temperature: 73.1 °F /  22.8 °C 54.5 °F /  12.5 °C 61.5 °F /  16.4 °C
Dew Point: 60.8 °F /  16 °C 52.1 °F /  11.2 °C 56.3 °F /  13.5 °C
Humidity: 97% 57% 84%
Wind Speed: 6.0mph /  9.7km/h - 2mph /  3.2km/h
Wind Gust: 16.0mph /  25.7km/h - -
Wind- - SSW
Pressure: 30.20 in /  1022.6 hPa 30.08 in /  1018.5 hPa -
Precipitation: 0.00 in /  0 mm    
Historical Graphs
 
 
Tabular Data for September 21, 2011
Time Temperature Dew Point Pressure Wind Wind Speed Wind Gust Humidity Daily Rainfall
00:00 54.5 °F /  12.5 °C 53.4 °F /  11.9 °C 30.11in /  1019.5hPa SSW 2.0mph /  3.2km/h 5.0mph /  8km/h 96% 0.46in /  11.7mm
00:05 55.3 °F /  12.9 °C 54.2 °F /  12.3 °C 30.11in /  1019.5hPa SSW 3.0mph /  4.8km/h 5.0mph /  8km/h 96% 0.00in /  0mm
00:10 56.3 °F /  13.5 °C 55.2 °F /  12.9 °C 30.11in /  1019.5hPa SW 1.0mph /  1.6km/h 6.0mph /  9.7km/h 96% 0.00in /  0mm
00:15 56.8 °F /  13.8 °C 55.7 °F /  13.2 °C 30.11in /  1019.5hPa SSW 1.0mph /  1.6km/h 6.0mph /  9.7km/h 96% 0.00in /  0mm
00:20 57.2 °F /  14 °C 56.1 °F /  13.4 °C 30.11in /  1019.5hPa SSW 4.0mph /  6.4km/h 7.0mph /  11.3km/h 96% 0.00in /  0mm
00:25 57.5 °F /  14.2 °C 56.4 °F /  13.6 °C 30.11in /  1019.5hPa SW 2.0mph /  3.2km/h 7.0mph /  11.3km/h 96% 0.00in /  0mm
00:30 57.6 °F /  14.2 °C 56.5 °F /  13.6 °C 30.11in /  1019.5hPa SW 1.0mph /  1.6km/h 6.0mph /  9.7km/h 96% 0.00in /  0mm
00:35 57.6 °F /  14.2 °C 56.5 °F /  13.6 °C 30.11in /  1019.5hPa SW 2.0mph /  3.2km/h 5.0mph /  8km/h 96% 0.00in /  0mm
00:45 57.8 °F /  14.3 °C 56.7 °F /  13.7 °C 30.12in /  1019.9hPa Calm   7.0mph /  11.3km/h 96% 0.00in /  0mm
00:50 57.8 °F /  14.3 °C 56.7 °F /  13.7 °C 30.12in /  1019.9hPa SW 3.0mph /  4.8km/h 6.0mph /  9.7km/h 96% 0.00in /  0mm
00:55 57.9 °F /  14.4 °C 56.8 °F /  13.8 °C 30.12in /  1019.9hPa SSW 2.0mph /  3.2km/h 8.0mph /  12.9km/h 96% 0.00in /  0mm
01:00 57.9 °F /  14.4 °C 56.8 °F /  13.8 °C 30.12in /  1019.9hPa Calm   8.0mph /  12.9km/h 96% 0.00in /  0mm
01:05 57.9 °F /  14.4 °C 56.8 °F /  13.8 °C 30.12in /  1019.9hPa SW 1.0mph /  1.6km/h 8.0mph /  12.9km/h 96% 0.00in /  0mm
01:10 57.9 °F /  14.4 °C 56.8 °F /  13.8 °C 30.13in /  1020.2hPa SW 1.0mph /  1.6km/h 8.0mph /  12.9km/h 96% 0.00in /  0mm
01:15 57.9 °F /  14.4 °C 56.8 °F /  13.8 °C 30.13in /  1020.2hPa SW 1.0mph /  1.6km/h 8.0mph /  12.9km/h 96% 0.00in /  0mm
01:20 57.9 °F /  14.4 °C 56.8 °F /  13.8 °C 30.12in /  1019.9hPa SW 1.0mph /  1.6km/h 8.0mph /  12.9km/h 96% 0.00in /  0mm
01:25 57.8 °F /  14.3 °C 56.7 °F /  13.7 °C 30.13in /  1020.2hPa SW 3.0mph /  4.8km/h 8.0mph /  12.9km/h 96% 0.00in /  0mm
01:30 57.8 °F /  14.3 °C 56.7 °F /  13.7 °C 30.13in /  1020.2hPa Calm   9.0mph /  14.5km/h 96% 0.00in /  0mm
01:40 57.6 °F /  14.2 °C 56.5 °F /  13.6 °C 30.12in /  1019.9hPa SW 2.0mph /  3.2km/h 7.0mph /  11.3km/h 96% 0.00in /  0mm
01:45 57.5 °F /  14.2 °C 56.4 °F /  13.6 °C 30.12in /  1019.9hPa SSW 1.0mph /  1.6km/h 6.0mph /  9.7km/h 96% 0.00in /  0mm
01:50 57.4 °F /  14.1 °C 56.3 °F /  13.5 °C 30.12in /  1019.9hPa SSW 1.0mph /  1.6km/h 7.0mph /  11.3km/h 96% 0.00in /  0mm
01:55 57.3 °F /  14.1 °C 56.2 °F /  13.4 °C 30.12in /  1019.9hPa SSW 1.0mph /  1.6km/h 7.0mph /  11.3km/h 96% 0.00in /  0mm
02:00 57.3 °F /  14.1 °C 56.2 °F /  13.4 °C 30.13in /  1020.2hPa Calm   6.0mph /  9.7km/h 96% 0.00in /  0mm
02:05 57.1 °F /  13.9 °C 56.0 °F /  13.3 °C 30.13in /  1020.2hPa SSW 1.0mph /  1.6km/h 5.0mph /  8km/h 96% 0.00in /  0mm
02:10 57.0 °F /  13.9 °C 55.9 °F /  13.3 °C 30.13in /  1020.2hPa SSW 1.0mph /  1.6km/h 5.0mph /  8km/h 96% 0.00in /  0mm
02:15 57.0 °F /  13.9 °C 55.9 °F /  13.3 °C 30.14in /  1020.5hPa Calm   5.0mph /  8km/h 96% 0.00in /  0mm
02:20 57.1 °F /  13.9 °C 56.0 °F /  13.3 °C 30.14in /  1020.5hPa Calm   7.0mph /  11.3km/h 96% 0.00in /  0mm
02:25 57.1 °F /  13.9 °C 56.0 °F /  13.3 °C 30.14in /  1020.5hPa SSW 2.0mph /  3.2km/h 7.0mph /  11.3km/h 96% 0.00in /  0mm
02:30 57.1 °F /  13.9 °C 56.0 °F /  13.3 °C 30.14in /  1020.5hPa SW 3.0mph /  4.8km/h 6.0mph /  9.7km/h 96% 0.00in /  0mm
02:40 57.2 °F /  14 °C 56.1 °F /  13.4 °C 30.14in /  1020.5hPa Calm   4.0mph /  6.4km/h 96% 0.00in /  0mm
02:45 57.1 °F /  13.9 °C 56.0 °F /  13.3 °C 30.14in /  1020.5hPa Calm   1.0mph /  1.6km/h 96% 0.00in /  0mm
02:50 57.0 °F /  13.9 °C 55.9 °F /  13.3 °C 30.14in /  1020.5hPa Calm   5.0mph /  8km/h 96% 0.00in /  0mm
02:55 56.9 °F /  13.8 °C 55.8 °F /  13.2 °C 30.14in /  1020.5hPa Calm   5.0mph /  8km/h 96% 0.00in /  0mm
03:00 56.8 °F /  13.8 °C 55.7 °F /  13.2 °C 30.14in /  1020.5hPa Calm   1.0mph /  1.6km/h 96% 0.00in /  0mm
03:05 56.8 °F /  13.8 °C 55.7 °F /  13.2 °C 30.14in /  1020.5hPa Calm   1.0mph /  1.6km/h 96% 0.00in /  0mm
03:10 56.8 °F /  13.8 °C 55.7 °F /  13.2 °C 30.14in /  1020.5hPa Calm   1.0mph /  1.6km/h 96% 0.00in /  0mm
03:15 56.8 °F /  13.8 °C 55.7 °F /  13.2 °C 30.14in /  1020.5hPa SSW 1.0mph /  1.6km/h 3.0mph /  4.8km/h 96% 0.00in /  0mm
03:20 56.8 °F /  13.8 °C 55.7 °F /  13.2 °C 30.14in /  1020.5hPa Calm   3.0mph /  4.8km/h 96% 0.00in /  0mm
03:30 56.7 °F /  13.7 °C 55.6 °F /  13.1 °C 30.14in /  1020.5hPa Calm   5.0mph /  8km/h 96% 0.00in /  0mm
03:35 56.7 °F /  13.7 °C 55.6 °F /  13.1 °C 30.14in /  1020.5hPa Calm   2.0mph /  3.2km/h 96% 0.00in /  0mm
03:40 56.7 °F /  13.7 °C 55.6 °F /  13.1 °C 30.14in /  1020.5hPa Calm   2.0mph /  3.2km/h 96% 0.00in /  0mm
03:45 56.6 °F /  13.7 °C 55.5 °F /  13.1 °C 30.14in /  1020.5hPa Calm   3.0mph /  4.8km/h 96% 0.00in /  0mm
03:50 56.6 °F /  13.7 °C 55.5 °F /  13.1 °C 30.14in /  1020.5hPa Calm   3.0mph /  4.8km/h 96% 0.00in /  0mm
03:55 56.5 °F /  13.6 °C 55.4 °F /  13 °C 30.14in /  1020.5hPa SSW 1.0mph /  1.6km/h 3.0mph /  4.8km/h 96% 0.00in /  0mm
04:00 56.4 °F /  13.6 °C 55.3 °F /  12.9 °C 30.14in /  1020.5hPa Calm   3.0mph /  4.8km/h 96% 0.00in /  0mm
04:05 56.3 °F /  13.5 °C 55.2 °F /  12.9 °C 30.14in /  1020.5hPa Calm   7.0mph /  11.3km/h 96% 0.00in /  0mm
04:10 56.3 °F /  13.5 °C 55.2 °F /  12.9 °C 30.14in /  1020.5hPa South 1.0mph /  1.6km/h 7.0mph /  11.3km/h 96% 0.00in /  0mm
04:15 56.4 °F /  13.6 °C 55.3 °F /  12.9 °C 30.14in /  1020.5hPa Calm   4.0mph /  6.4km/h 96% 0.00in /  0mm
04:20 56.4 °F /  13.6 °C 55.3 °F /  12.9 °C 30.15in /  1020.9hPa Calm   2.0mph /  3.2km/h 96% 0.00in /  0mm
04:25 56.5 °F /  13.6 °C 55.4 °F /  13 °C 30.15in /  1020.9hPa Calm   3.0mph /  4.8km/h 96% 0.00in /  0mm
04:30 56.7 °F /  13.7 °C 55.6 °F /  13.1 °C 30.15in /  1020.9hPa South 1.0mph /  1.6km/h 4.0mph /  6.4km/h 96% 0.00in /  0mm
04:35 56.8 °F /  13.8 °C 56.0 °F /  13.3 °C 30.15in /  1020.9hPa Calm   4.0mph /  6.4km/h 97% 0.00in /  0mm
04:40 56.8 °F /  13.8 °C 56.0 °F /  13.3 °C 30.15in /  1020.9hPa Calm   4.0mph /  6.4km/h 97% 0.00in /  0mm
04:45 56.8 °F /  13.8 °C 56.0 °F /  13.3 °C 30.15in /  1020.9hPa Calm     97% 0.00in /  0mm
04:50 56.8 °F /  13.8 °C 56.0 °F /  13.3 °C 30.15in /  1020.9hPa Calm   2.0mph /  3.2km/h 97% 0.00in /  0mm
04:55 56.7 °F /  13.7 °C 55.9 °F /  13.3 °C 30.15in /  1020.9hPa Calm   2.0mph /  3.2km/h 97% 0.00in /  0mm
05:00 56.7 °F /  13.7 °C 55.6 °F /  13.1 °C 30.15in /  1020.9hPa South 1.0mph /  1.6km/h 4.0mph /  6.4km/h 96% 0.00in /  0mm
05:05 56.6 °F /  13.7 °C 55.5 °F /  13.1 °C 30.15in /  1020.9hPa Calm   4.0mph /  6.4km/h 96% 0.00in /  0mm
05:10 56.6 °F /  13.7 °C 55.5 °F /  13.1 °C 30.15in /  1020.9hPa Calm   3.0mph /  4.8km/h 96% 0.00in /  0mm
05:15 56.6 °F /  13.7 °C 55.5 °F /  13.1 °C 30.15in /  1020.9hPa Calm   3.0mph /  4.8km/h 96% 0.00in /  0mm
05:20 56.6 °F /  13.7 °C 55.5 °F /  13.1 °C 30.15in /  1020.9hPa Calm   2.0mph /  3.2km/h 96% 0.00in /  0mm
05:25 56.6 °F /  13.7 °C 55.5 °F /  13.1 °C 30.16in /  1021.2hPa SSW 1.0mph /  1.6km/h 4.0mph /  6.4km/h 96% 0.00in /  0mm
05:30 56.6 °F /  13.7 °C 55.5 °F /  13.1 °C 30.16in /  1021.2hPa SSW 1.0mph /  1.6km/h 4.0mph /  6.4km/h 96% 0.00in /  0mm
05:35 56.6 °F /  13.7 °C 55.5 °F /  13.1 °C 30.16in /  1021.2hPa SSW 2.0mph /  3.2km/h 5.0mph /  8km/h 96% 0.00in /  0mm
05:40 56.5 °F /  13.6 °C 55.4 °F /  13 °C 30.16in /  1021.2hPa Calm   6.0mph /  9.7km/h 96% 0.00in /  0mm
05:45 56.4 °F /  13.6 °C 55.3 °F /  12.9 °C 30.15in /  1020.9hPa SSW 2.0mph /  3.2km/h 6.0mph /  9.7km/h 96% 0.00in /  0mm
05:50 56.4 °F /  13.6 °C 55.6 °F /  13.1 °C 30.16in /  1021.2hPa Calm   6.0mph /  9.7km/h 97% 0.00in /  0mm
05:55 56.3 °F /  13.5 °C 55.5 °F /  13.1 °C 30.15in /  1020.9hPa SW 1.0mph /  1.6km/h 4.0mph /  6.4km/h 97% 0.00in /  0mm
06:00 56.2 °F /  13.4 °C 55.4 °F /  13 °C 30.16in /  1021.2hPa Calm   4.0mph /  6.4km/h 97% 0.00in /  0mm
06:05 56.2 °F /  13.4 °C 55.4 °F /  13 °C 30.15in /  1020.9hPa SSW 1.0mph /  1.6km/h 5.0mph /  8km/h 97% 0.00in /  0mm
06:10 56.2 °F /  13.4 °C 55.4 °F /  13 °C 30.16in /  1021.2hPa SSW 1.0mph /  1.6km/h 5.0mph /  8km/h 97% 0.00in /  0mm
06:15 56.2 °F /  13.4 °C 55.4 °F /  13 °C 30.16in /  1021.2hPa Calm   4.0mph /  6.4km/h 97% 0.00in /  0mm
06:20 56.2 °F /  13.4 °C 55.4 °F /  13 °C 30.16in /  1021.2hPa SSW 2.0mph /  3.2km/h 4.0mph /  6.4km/h 97% 0.00in /  0mm
06:25 56.2 °F /  13.4 °C 55.4 °F /  13 °C 30.16in /  1021.2hPa SSW 1.0mph /  1.6km/h 4.0mph /  6.4km/h 97% 0.00in /  0mm
06:30 56.2 °F /  13.4 °C 55.4 °F /  13 °C 30.16in /  1021.2hPa SSW 1.0mph /  1.6km/h 7.0mph /  11.3km/h 97% 0.00in /  0mm
06:35 56.1 °F /  13.4 °C 55.3 °F /  12.9 °C 30.16in /  1021.2hPa SSW 1.0mph /  1.6km/h 7.0mph /  11.3km/h 97% 0.00in /  0mm
06:40 56.0 °F /  13.3 °C 54.9 °F /  12.7 °C 30.16in /  1021.2hPa SSW 3.0mph /  4.8km/h 5.0mph /  8km/h 96% 0.00in /  0mm
06:45 56.0 °F /  13.3 °C 54.9 °F /  12.7 °C 30.16in /  1021.2hPa SSW 2.0mph /  3.2km/h 7.0mph /  11.3km/h 96% 0.00in /  0mm
06:50 55.9 °F /  13.3 °C 54.8 °F /  12.7 °C 30.16in /  1021.2hPa SSW 4.0mph /  6.4km/h 7.0mph /  11.3km/h 96% 0.00in /  0mm
06:55 55.8 °F /  13.2 °C 54.7 °F /  12.6 °C 30.16in /  1021.2hPa South 1.0mph /  1.6km/h 7.0mph /  11.3km/h 96% 0.00in /  0mm
07:00 55.8 °F /  13.2 °C 55.0 °F /  12.8 °C 30.17in /  1021.6hPa SSW 1.0mph /  1.6km/h 7.0mph /  11.3km/h 97% 0.00in /  0mm
07:05 55.8 °F /  13.2 °C 54.7 °F /  12.6 °C 30.17in /  1021.6hPa SSW 1.0mph /  1.6km/h 7.0mph /  11.3km/h 96% 0.00in /  0mm
07:10 55.8 °F /  13.2 °C 55.0 °F /  12.8 °C 30.17in /  1021.6hPa South 1.0mph /  1.6km/h 6.0mph /  9.7km/h 97% 0.00in /  0mm
07:15 55.8 °F /  13.2 °C 55.0 °F /  12.8 °C 30.17in /  1021.6hPa Calm   7.0mph /  11.3km/h 97% 0.00in /  0mm
07:20 55.7 °F /  13.2 °C 54.9 °F /  12.7 °C 30.17in /  1021.6hPa SSW 2.0mph /  3.2km/h 7.0mph /  11.3km/h 97% 0.00in /  0mm
07:25 55.7 °F /  13.2 °C 54.9 °F /  12.7 °C 30.17in /  1021.6hPa SW 3.0mph /  4.8km/h 7.0mph /  11.3km/h 97% 0.00in /  0mm
07:30 55.7 °F /  13.2 °C 54.9 °F /  12.7 °C 30.17in /  1021.6hPa SW 1.0mph /  1.6km/h 7.0mph /  11.3km/h 97% 0.00in /  0mm
07:35 55.7 °F /  13.2 °C 54.9 °F /  12.7 °C 30.17in /  1021.6hPa SW 1.0mph /  1.6km/h 6.0mph /  9.7km/h 97% 0.00in /  0mm
07:40 55.8 °F /  13.2 °C 55.0 °F /  12.8 °C 30.17in /  1021.6hPa SSW 3.0mph /  4.8km/h 7.0mph /  11.3km/h 97% 0.00in /  0mm
07:45 55.7 °F /  13.2 °C 54.9 °F /  12.7 °C 30.17in /  1021.6hPa SW 1.0mph /  1.6km/h 7.0mph /  11.3km/h 97% 0.00in /  0mm
07:50 55.8 °F /  13.2 °C 55.0 °F /  12.8 °C 30.17in /  1021.6hPa South 1.0mph /  1.6km/h 8.0mph /  12.9km/h 97% 0.00in /  0mm
07:55 55.8 °F /  13.2 °C 54.7 °F /  12.6 °C 30.18in /  1021.9hPa SW 3.0mph /  4.8km/h 8.0mph /  12.9km/h 96% 0.00in /  0mm
08:00 55.9 °F /  13.3 °C 54.8 °F /  12.7 °C 30.18in /  1021.9hPa SW 2.0mph /  3.2km/h 8.0mph /  12.9km/h 96% 0.00in /  0mm
08:05 56.0 °F /  13.3 °C 54.9 °F /  12.7 °C 30.18in /  1021.9hPa Calm   8.0mph /  12.9km/h 96% 0.00in /  0mm
08:10 56.0 °F /  13.3 °C 54.9 °F /  12.7 °C 30.18in /  1021.9hPa SSW 3.0mph /  4.8km/h 8.0mph /  12.9km/h 96% 0.00in /  0mm
08:15 56.0 °F /  13.3 °C 54.9 °F /  12.7 °C 30.18in /  1021.9hPa SW 3.0mph /  4.8km/h 8.0mph /  12.9km/h 96% 0.00in /  0mm
08:20 56.0 °F /  13.3 °C 54.9 °F /  12.7 °C 30.18in /  1021.9hPa SW 3.0mph /  4.8km/h 10.0mph /  16.1km/h 96% 0.00in /  0mm
08:25 56.0 °F /  13.3 °C 54.9 °F /  12.7 °C 30.18in /  1021.9hPa SW 3.0mph /  4.8km/h 11.0mph /  17.7km/h 96% 0.00in /  0mm
08:30 56.1 °F /  13.4 °C 55.0 °F /  12.8 °C 30.18in /  1021.9hPa SW 2.0mph /  3.2km/h 11.0mph /  17.7km/h 96% 0.00in /  0mm
08:35 56.2 °F /  13.4 °C 55.4 °F /  13 °C 30.18in /  1021.9hPa SW 5.0mph /  8km/h 9.0mph /  14.5km/h 97% 0.00in /  0mm
08:40 56.0 °F /  13.3 °C 54.9 °F /  12.7 °C 30.19in /  1022.2hPa SW 3.0mph /  4.8km/h 11.0mph /  17.7km/h 96% 0.00in /  0mm
08:45 56.0 °F /  13.3 °C 54.9 °F /  12.7 °C 30.19in /  1022.2hPa SSW 1.0mph /  1.6km/h 11.0mph /  17.7km/h 96% 0.00in /  0mm
08:50 56.2 °F /  13.4 °C 55.4 °F /  13 °C 30.19in /  1022.2hPa SW 4.0mph /  6.4km/h 8.0mph /  12.9km/h 97% 0.00in /  0mm
08:55 56.2 °F /  13.4 °C 55.4 °F /  13 °C 30.19in /  1022.2hPa SW 4.0mph /  6.4km/h 9.0mph /  14.5km/h 97% 0.00in /  0mm
09:00 56.1 °F /  13.4 °C 55.0 °F /  12.8 °C 30.19in /  1022.2hPa SW 4.0mph /  6.4km/h 10.0mph /  16.1km/h 96% 0.00in /  0mm
09:05 56.5 °F /  13.6 °C 55.7 °F /  13.2 °C 30.19in /  1022.2hPa SW 5.0mph /  8km/h 10.0mph /  16.1km/h 97% 0.00in /  0mm
09:10 56.8 °F /  13.8 °C 56.0 °F /  13.3 °C 30.19in /  1022.2hPa SSW 3.0mph /  4.8km/h 9.0mph /  14.5km/h 97% 0.00in /  0mm
09:15 56.8 °F /  13.8 °C 56.0 °F /  13.3 °C 30.19in /  1022.2hPa SW 5.0mph /  8km/h 11.0mph /  17.7km/h 97% 0.00in /  0mm
09:20 57.0 °F /  13.9 °C 56.2 °F /  13.4 °C 30.19in /  1022.2hPa SSW 2.0mph /  3.2km/h 11.0mph /  17.7km/h 97% 0.00in /  0mm
09:25 57.0 °F /  13.9 °C 56.2 °F /  13.4 °C 30.19in /  1022.2hPa SW 4.0mph /  6.4km/h 10.0mph /  16.1km/h 97% 0.00in /  0mm
09:30 57.1 °F /  13.9 °C 56.3 °F /  13.5 °C 30.19in /  1022.2hPa SSW 4.0mph /  6.4km/h 10.0mph /  16.1km/h 97% 0.00in /  0mm
09:35 57.1 °F /  13.9 °C 56.3 °F /  13.5 °C 30.19in /  1022.2hPa SSW 3.0mph /  4.8km/h 11.0mph /  17.7km/h 97% 0.00in /  0mm
09:40 57.5 °F /  14.2 °C 56.7 °F /  13.7 °C 30.20in /  1022.6hPa SW 1.0mph /  1.6km/h 11.0mph /  17.7km/h 97% 0.00in /  0mm
09:45 57.8 °F /  14.3 °C 57.0 °F /  13.9 °C 30.20in /  1022.6hPa WSW 1.0mph /  1.6km/h 8.0mph /  12.9km/h 97% 0.00in /  0mm
09:50 58.1 °F /  14.5 °C 57.3 °F /  14.1 °C 30.20in /  1022.6hPa SW 5.0mph /  8km/h 8.0mph /  12.9km/h 97% 0.00in /  0mm
09:55 57.7 °F /  14.3 °C 56.9 °F /  13.8 °C 30.20in /  1022.6hPa SSW 4.0mph /  6.4km/h 9.0mph /  14.5km/h 97% 0.00in /  0mm
10:00 58.0 °F /  14.4 °C 57.2 °F /  14 °C 30.20in /  1022.6hPa SW 4.0mph /  6.4km/h 9.0mph /  14.5km/h 97% 0.00in /  0mm
10:05 58.6 °F /  14.8 °C 57.8 °F /  14.3 °C 30.20in /  1022.6hPa Calm   9.0mph /  14.5km/h 97% 0.00in /  0mm
10:10 59.5 °F /  15.3 °C 58.6 °F /  14.8 °C 30.20in /  1022.6hPa SW 1.0mph /  1.6km/h 8.0mph /  12.9km/h 97% 0.00in /  0mm
10:15 59.7 °F /  15.4 °C 58.6 °F /  14.8 °C 30.20in /  1022.6hPa SSW 2.0mph /  3.2km/h 8.0mph /  12.9km/h 96% 0.00in /  0mm
10:20 59.6 °F /  15.3 °C 57.9 °F /  14.4 °C 30.20in /  1022.6hPa Calm   6.0mph /  9.7km/h 94% 0.00in /  0mm
10:25 60.1 °F /  15.6 °C 58.4 °F /  14.7 °C 30.20in /  1022.6hPa Calm   6.0mph /  9.7km/h 94% 0.00in /  0mm
10:30 60.6 °F /  15.9 °C 58.6 °F /  14.8 °C 30.19in /  1022.2hPa Calm   7.0mph /  11.3km/h 93% 0.00in /  0mm
10:35 60.9 °F /  16.1 °C 58.3 °F /  14.6 °C 30.19in /  1022.2hPa SW 1.0mph /  1.6km/h 7.0mph /  11.3km/h 91% 0.00in /  0mm
10:40 61.2 °F /  16.2 °C 58.2 °F /  14.6 °C 30.19in /  1022.2hPa SW 1.0mph /  1.6km/h 5.0mph /  8km/h 90% 0.00in /  0mm
10:45 61.3 °F /  16.3 °C 57.7 °F /  14.3 °C 30.19in /  1022.2hPa SSW 1.0mph /  1.6km/h 7.0mph /  11.3km/h 88% 0.00in /  0mm
10:50 61.7 °F /  16.5 °C 58.1 °F /  14.5 °C 30.19in /  1022.2hPa SSW 1.0mph /  1.6km/h 7.0mph /  11.3km/h 88% 0.00in /  0mm
10:55 62.0 °F /  16.7 °C 57.8 °F /  14.3 °C 30.19in /  1022.2hPa Calm   7.0mph /  11.3km/h 86% 0.00in /  0mm
11:00 63.0 °F /  17.2 °C 58.7 °F /  14.8 °C 30.19in /  1022.2hPa WSW 2.0mph /  3.2km/h 8.0mph /  12.9km/h 86% 0.00in /  0mm
11:05 64.2 °F /  17.9 °C 59.6 °F /  15.3 °C 30.18in /  1021.9hPa South 2.0mph /  3.2km/h 8.0mph /  12.9km/h 85% 0.00in /  0mm
11:10 65.0 °F /  18.3 °C 58.7 °F /  14.8 °C 30.18in /  1021.9hPa Calm   8.0mph /  12.9km/h 80% 0.00in /  0mm
11:15 65.4 °F /  18.6 °C 59.1 °F /  15.1 °C 30.18in /  1021.9hPa Calm   8.0mph /  12.9km/h 80% 0.00in /  0mm
11:20 65.8 °F /  18.8 °C 59.1 °F /  15.1 °C 30.18in /  1021.9hPa Calm   9.0mph /  14.5km/h 79% 0.00in /  0mm
11:30 66.6 °F /  19.2 °C 59.2 °F /  15.1 °C 30.18in /  1021.9hPa South 3.0mph /  4.8km/h 8.0mph /  12.9km/h 77% 0.00in /  0mm
11:35 66.2 °F /  19 °C 57.7 °F /  14.3 °C 30.18in /  1021.9hPa SW 3.0mph /  4.8km/h 9.0mph /  14.5km/h 74% 0.00in /  0mm
11:40 65.9 °F /  18.8 °C 57.4 °F /  14.1 °C 30.18in /  1021.9hPa SW 3.0mph /  4.8km/h 9.0mph /  14.5km/h 74% 0.00in /  0mm
11:45 66.1 °F /  18.9 °C 57.6 °F /  14.2 °C 30.17in /  1021.6hPa SW 4.0mph /  6.4km/h 8.0mph /  12.9km/h 74% 0.00in /  0mm
11:50 66.6 °F /  19.2 °C 59.2 °F /  15.1 °C 30.17in /  1021.6hPa SW 1.0mph /  1.6km/h 8.0mph /  12.9km/h 77% 0.00in /  0mm
11:55 67.0 °F /  19.4 °C 59.2 °F /  15.1 °C 30.17in /  1021.6hPa SE 1.0mph /  1.6km/h 9.0mph /  14.5km/h 76% 0.00in /  0mm
12:00 67.6 °F /  19.8 °C 58.6 °F /  14.8 °C 30.17in /  1021.6hPa South 1.0mph /  1.6km/h 9.0mph /  14.5km/h 73% 0.00in /  0mm
12:05 67.8 °F /  19.9 °C 58.1 °F /  14.5 °C 30.16in /  1021.2hPa SW 5.0mph /  8km/h 11.0mph /  17.7km/h 71% 0.00in /  0mm
12:10 67.8 °F /  19.9 °C 56.9 °F /  13.8 °C 30.16in /  1021.2hPa SW 1.0mph /  1.6km/h 11.0mph /  17.7km/h 68% 0.00in /  0mm
12:15 68.0 °F /  20 °C 57.1 °F /  13.9 °C 30.16in /  1021.2hPa Calm   7.0mph /  11.3km/h 68% 0.00in /  0mm
12:20 68.0 °F /  20 °C 55.8 °F /  13.2 °C 30.16in /  1021.2hPa SW 6.0mph /  9.7km/h 11.0mph /  17.7km/h 65% 0.00in /  0mm
12:25 68.1 °F /  20.1 °C 56.7 °F /  13.7 °C 30.16in /  1021.2hPa SW 1.0mph /  1.6km/h 11.0mph /  17.7km/h 67% 0.00in /  0mm
12:30 68.2 °F /  20.1 °C 57.7 °F /  14.3 °C 30.16in /  1021.2hPa WSW 2.0mph /  3.2km/h 10.0mph /  16.1km/h 69% 0.00in /  0mm
12:35 68.6 °F /  20.3 °C 56.8 °F /  13.8 °C 30.16in /  1021.2hPa SW 3.0mph /  4.8km/h 10.0mph /  16.1km/h 66% 0.00in /  0mm
12:40 68.9 °F /  20.5 °C 58.3 °F /  14.6 °C 30.16in /  1021.2hPa SSW 2.0mph /  3.2km/h 9.0mph /  14.5km/h 69% 0.00in /  0mm
12:45 69.0 °F /  20.6 °C 56.8 °F /  13.8 °C 30.16in /  1021.2hPa SSW 1.0mph /  1.6km/h 10.0mph /  16.1km/h 65% 0.00in /  0mm
12:50 69.2 °F /  20.7 °C 56.1 °F /  13.4 °C 30.16in /  1021.2hPa South 1.0mph /  1.6km/h 10.0mph /  16.1km/h 63% 0.00in /  0mm
12:55 69.2 °F /  20.7 °C 56.9 °F /  13.8 °C 30.15in /  1020.9hPa South 1.0mph /  1.6km/h 9.0mph /  14.5km/h 65% 0.00in /  0mm
13:00 69.5 °F /  20.8 °C 56.8 °F /  13.8 °C 30.15in /  1020.9hPa Calm   9.0mph /  14.5km/h 64% 0.00in /  0mm
13:05 69.7 °F /  20.9 °C 55.7 °F /  13.2 °C 30.15in /  1020.9hPa SSE 2.0mph /  3.2km/h 9.0mph /  14.5km/h 61% 0.00in /  0mm
13:10 69.7 °F /  20.9 °C 57.0 °F /  13.9 °C 30.15in /  1020.9hPa Calm   8.0mph /  12.9km/h 64% 0.00in /  0mm
13:15 70.1 °F /  21.2 °C 58.2 °F /  14.6 °C 30.15in /  1020.9hPa SE 1.0mph /  1.6km/h 8.0mph /  12.9km/h 66% 0.00in /  0mm
13:20 70.3 °F /  21.3 °C 57.1 °F /  13.9 °C 30.15in /  1020.9hPa SSE 1.0mph /  1.6km/h 8.0mph /  12.9km/h 63% 0.00in /  0mm
13:25 70.6 °F /  21.4 °C 57.8 °F /  14.3 °C 30.15in /  1020.9hPa South 2.0mph /  3.2km/h 8.0mph /  12.9km/h 64% 0.00in /  0mm
13:30 70.7 °F /  21.5 °C 57.5 °F /  14.2 °C 30.15in /  1020.9hPa SW 3.0mph /  4.8km/h 7.0mph /  11.3km/h 63% 0.00in /  0mm
13:35 70.8 °F /  21.6 °C 57.6 °F /  14.2 °C 30.15in /  1020.9hPa Calm   7.0mph /  11.3km/h 63% 0.00in /  0mm
13:40 71.0 °F /  21.7 °C 56.9 °F /  13.8 °C 30.15in /  1020.9hPa SW 2.0mph /  3.2km/h 8.0mph /  12.9km/h 61% 0.00in /  0mm
13:45 70.8 °F /  21.6 °C 57.2 °F /  14 °C 30.15in /  1020.9hPa SSE 3.0mph /  4.8km/h 8.0mph /  12.9km/h 62% 0.00in /  0mm
13:50 71.0 °F /  21.7 °C 58.7 °F /  14.8 °C 30.14in /  1020.5hPa SSW 2.0mph /  3.2km/h 8.0mph /  12.9km/h 65% 0.00in /  0mm
13:55 71.2 °F /  21.8 °C 57.1 °F /  13.9 °C 30.14in /  1020.5hPa SW 1.0mph /  1.6km/h 10.0mph /  16.1km/h 61% 0.00in /  0mm
14:00 71.7 °F /  22.1 °C 57.5 °F /  14.2 °C 30.14in /  1020.5hPa SW 2.0mph /  3.2km/h 10.0mph /  16.1km/h 61% 0.00in /  0mm
14:05 71.5 °F /  21.9 °C 57.4 °F /  14.1 °C 30.14in /  1020.5hPa South 1.0mph /  1.6km/h 10.0mph /  16.1km/h 61% 0.00in /  0mm
14:10 71.7 °F /  22.1 °C 55.7 °F /  13.2 °C 30.14in /  1020.5hPa SSW 2.0mph /  3.2km/h 10.0mph /  16.1km/h 57% 0.00in /  0mm
14:15 71.9 °F /  22.2 °C 57.3 °F /  14.1 °C 30.13in /  1020.2hPa Calm   9.0mph /  14.5km/h 60% 0.00in /  0mm
14:20 71.7 °F /  22.1 °C 58.0 °F /  14.4 °C 30.13in /  1020.2hPa South 1.0mph /  1.6km/h 11.0mph /  17.7km/h 62% 0.00in /  0mm
14:25 71.7 °F /  22.1 °C 58.4 °F /  14.7 °C 30.13in /  1020.2hPa SSW 1.0mph /  1.6km/h 11.0mph /  17.7km/h 63% 0.00in /  0mm
14:30 71.9 °F /  22.2 °C 58.2 °F /  14.6 °C 30.13in /  1020.2hPa Calm   6.0mph /  9.7km/h 62% 0.00in /  0mm
14:35 71.8 °F /  22.1 °C 58.1 °F /  14.5 °C 30.12in /  1019.9hPa SSW 1.0mph /  1.6km/h 7.0mph /  11.3km/h 62% 0.00in /  0mm
14:40 72.1 °F /  22.3 °C 58.4 °F /  14.7 °C 30.12in /  1019.9hPa SW 3.0mph /  4.8km/h 11.0mph /  17.7km/h 62% 0.00in /  0mm
14:45 72.4 °F /  22.4 °C 58.7 °F /  14.8 °C 30.12in /  1019.9hPa SW 3.0mph /  4.8km/h 11.0mph /  17.7km/h 62% 0.00in /  0mm
14:50 72.1 °F /  22.3 °C 58.8 °F /  14.9 °C 30.12in /  1019.9hPa South 1.0mph /  1.6km/h 11.0mph /  17.7km/h 63% 0.00in /  0mm
14:55 72.3 °F /  22.4 °C 59.5 °F /  15.3 °C 30.12in /  1019.9hPa South 2.0mph /  3.2km/h 9.0mph /  14.5km/h 64% 0.00in /  0mm
15:00 72.3 °F /  22.4 °C 58.6 °F /  14.8 °C 30.12in /  1019.9hPa Calm   9.0mph /  14.5km/h 62% 0.00in /  0mm
15:05 72.8 °F /  22.7 °C 60.8 °F /  16 °C 30.12in /  1019.9hPa WSW 1.0mph /  1.6km/h 10.0mph /  16.1km/h 66% 0.00in /  0mm
15:10 72.6 °F /  22.6 °C 58.4 °F /  14.7 °C 30.12in /  1019.9hPa SW 3.0mph /  4.8km/h 11.0mph /  17.7km/h 61% 0.00in /  0mm
15:15 72.5 °F /  22.5 °C 59.6 °F /  15.3 °C 30.12in /  1019.9hPa South 1.0mph /  1.6km/h 11.0mph /  17.7km/h 64% 0.00in /  0mm
15:20 72.7 °F /  22.6 °C 58.0 °F /  14.4 °C 30.12in /  1019.9hPa SSW 1.0mph /  1.6km/h 9.0mph /  14.5km/h 60% 0.00in /  0mm
15:30 72.8 °F /  22.7 °C 58.6 °F /  14.8 °C 30.12in /  1019.9hPa WSW 4.0mph /  6.4km/h 16.0mph /  25.7km/h 61% 0.00in /  0mm
15:40 73.1 °F /  22.8 °C 58.9 °F /  14.9 °C 30.12in /  1019.9hPa SW 2.0mph /  3.2km/h 8.0mph /  12.9km/h 61% 0.00in /  0mm
15:45 73.0 °F /  22.8 °C 58.3 °F /  14.6 °C 30.12in /  1019.9hPa SW 4.0mph /  6.4km/h 9.0mph /  14.5km/h 60% 0.00in /  0mm
15:50 73.0 °F /  22.8 °C 58.3 °F /  14.6 °C 30.12in /  1019.9hPa SW 3.0mph /  4.8km/h 9.0mph /  14.5km/h 60% 0.00in /  0mm
15:55 72.9 °F /  22.7 °C 59.6 °F /  15.3 °C 30.12in /  1019.9hPa SW 1.0mph /  1.6km/h 8.0mph /  12.9km/h 63% 0.00in /  0mm
16:00 72.8 °F /  22.7 °C 58.1 °F /  14.5 °C 30.12in /  1019.9hPa SW 1.0mph /  1.6km/h 10.0mph /  16.1km/h 60% 0.00in /  0mm
16:05 72.9 °F /  22.7 °C 58.7 °F /  14.8 °C 30.12in /  1019.9hPa SSW 1.0mph /  1.6km/h 10.0mph /  16.1km/h 61% 0.00in /  0mm
16:10 72.8 °F /  22.7 °C 58.6 °F /  14.8 °C 30.12in /  1019.9hPa SW 2.0mph /  3.2km/h 9.0mph /  14.5km/h 61% 0.00in /  0mm
16:15 72.8 °F /  22.7 °C 59.0 °F /  15 °C 30.11in /  1019.5hPa SW 4.0mph /  6.4km/h 9.0mph /  14.5km/h 62% 0.00in /  0mm
16:20 72.6 °F /  22.6 °C 59.7 °F /  15.4 °C 30.11in /  1019.5hPa SW 1.0mph /  1.6km/h 9.0mph /  14.5km/h 64% 0.00in /  0mm
16:25 72.6 °F /  22.6 °C 59.3 °F /  15.2 °C 30.11in /  1019.5hPa SSW 1.0mph /  1.6km/h 9.0mph /  14.5km/h 63% 0.00in /  0mm
16:30 72.7 °F /  22.6 °C 59.8 °F /  15.4 °C 30.11in /  1019.5hPa SSW 1.0mph /  1.6km/h 7.0mph /  11.3km/h 64% 0.00in /  0mm
16:35 72.8 °F /  22.7 °C 59.9 °F /  15.5 °C 30.11in /  1019.5hPa SSW 1.0mph /  1.6km/h 6.0mph /  9.7km/h 64% 0.00in /  0mm
16:40 72.9 °F /  22.7 °C 60.5 °F /  15.8 °C 30.11in /  1019.5hPa Calm   6.0mph /  9.7km/h 65% 0.00in /  0mm
16:45 73.0 °F /  22.8 °C 60.1 °F /  15.6 °C 30.11in /  1019.5hPa Calm   6.0mph /  9.7km/h 64% 0.00in /  0mm
16:50 73.0 °F /  22.8 °C 59.7 °F /  15.4 °C 30.11in /  1019.5hPa SSW 1.0mph /  1.6km/h 7.0mph /  11.3km/h 63% 0.00in /  0mm
16:55 72.7 °F /  22.6 °C 59.8 °F /  15.4 °C 30.11in /  1019.5hPa Calm   7.0mph /  11.3km/h 64% 0.00in /  0mm
17:00 72.3 °F /  22.4 °C 59.5 °F /  15.3 °C 30.10in /  1019.2hPa SW 2.0mph /  3.2km/h 10.0mph /  16.1km/h 64% 0.00in /  0mm
17:05 72.1 °F /  22.3 °C 60.1 °F /  15.6 °C 30.10in /  1019.2hPa Calm   10.0mph /  16.1km/h 66% 0.00in /  0mm
17:10 72.1 °F /  22.3 °C 58.8 °F /  14.9 °C 30.10in /  1019.2hPa SSW 2.0mph /  3.2km/h 11.0mph /  17.7km/h 63% 0.00in /  0mm
17:15 71.8 °F /  22.1 °C 59.0 °F /  15 °C 30.10in /  1019.2hPa Calm   11.0mph /  17.7km/h 64% 0.00in /  0mm
17:20 71.7 °F /  22.1 °C 58.4 °F /  14.7 °C 30.10in /  1019.2hPa SW 1.0mph /  1.6km/h 9.0mph /  14.5km/h 63% 0.00in /  0mm
17:25 71.3 °F /  21.8 °C 57.6 °F /  14.2 °C 30.10in /  1019.2hPa Calm   10.0mph /  16.1km/h 62% 0.00in /  0mm
17:30 71.0 °F /  21.7 °C 59.1 °F /  15.1 °C 30.10in /  1019.2hPa Calm   10.0mph /  16.1km/h 66% 0.00in /  0mm
17:35 71.0 °F /  21.7 °C 59.1 °F /  15.1 °C 30.10in /  1019.2hPa SSW 1.0mph /  1.6km/h 4.0mph /  6.4km/h 66% 0.00in /  0mm
17:45 70.9 °F /  21.6 °C 59.4 °F /  15.2 °C 30.10in /  1019.2hPa Calm   4.0mph /  6.4km/h 67% 0.00in /  0mm
17:50 70.5 °F /  21.4 °C 58.2 °F /  14.6 °C 30.10in /  1019.2hPa SSE 1.0mph /  1.6km/h 7.0mph /  11.3km/h 65% 0.00in /  0mm
17:55 70.0 °F /  21.1 °C 58.1 °F /  14.5 °C 30.10in /  1019.2hPa SSW 1.0mph /  1.6km/h 7.0mph /  11.3km/h 66% 0.00in /  0mm
18:00 69.8 °F /  21 °C 57.9 °F /  14.4 °C 30.10in /  1019.2hPa Calm   4.0mph /  6.4km/h 66% 0.00in /  0mm
18:05 69.7 °F /  20.9 °C 59.1 °F /  15.1 °C 30.10in /  1019.2hPa Calm   2.0mph /  3.2km/h 69% 0.00in /  0mm
18:10 69.2 °F /  20.7 °C 57.8 °F /  14.3 °C 30.10in /  1019.2hPa Calm   3.0mph /  4.8km/h 67% 0.00in /  0mm
18:15 68.6 °F /  20.3 °C 57.6 °F /  14.2 °C 30.10in /  1019.2hPa South 1.0mph /  1.6km/h 7.0mph /  11.3km/h 68% 0.00in /  0mm
18:20 67.9 °F /  19.9 °C 57.0 °F /  13.9 °C 30.09in /  1018.8hPa Calm   7.0mph /  11.3km/h 68% 0.00in /  0mm
18:25 67.2 °F /  19.6 °C 55.9 °F /  13.3 °C 30.10in /  1019.2hPa SSW 1.0mph /  1.6km/h 6.0mph /  9.7km/h 67% 0.00in /  0mm
18:30 66.5 °F /  19.2 °C 55.2 °F /  12.9 °C 30.10in /  1019.2hPa Calm   6.0mph /  9.7km/h 67% 0.00in /  0mm
18:35 65.7 °F /  18.7 °C 56.4 °F /  13.6 °C 30.10in /  1019.2hPa Calm   1.0mph /  1.6km/h 72% 0.00in /  0mm
18:40 64.7 °F /  18.2 °C 55.9 °F /  13.3 °C 30.10in /  1019.2hPa Calm   1.0mph /  1.6km/h 73% 0.00in /  0mm
18:45 63.7 °F /  17.6 °C 55.6 °F /  13.1 °C 30.10in /  1019.2hPa Calm   1.0mph /  1.6km/h 75% 0.00in /  0mm
18:50 62.7 °F /  17.1 °C 55.4 °F /  13 °C 30.10in /  1019.2hPa Calm     77% 0.00in /  0mm
18:55 61.9 °F /  16.6 °C 55.0 °F /  12.8 °C 30.10in /  1019.2hPa Calm     78% 0.00in /  0mm
19:00 61.0 °F /  16.1 °C 54.8 °F /  12.7 °C 30.10in /  1019.2hPa Calm     80% 0.00in /  0mm
19:05 60.4 °F /  15.8 °C 54.5 °F /  12.5 °C 30.10in /  1019.2hPa Calm   5.0mph /  8km/h 81% 0.00in /  0mm
19:10 60.1 °F /  15.6 °C 54.6 °F /  12.6 °C 30.10in /  1019.2hPa Calm   5.0mph /  8km/h 82% 0.00in /  0mm
19:15 59.8 °F /  15.4 °C 54.6 °F /  12.6 °C 30.10in /  1019.2hPa Calm   3.0mph /  4.8km/h 83% 0.00in /  0mm
19:20 59.5 °F /  15.3 °C 54.7 °F /  12.6 °C 30.10in /  1019.2hPa Calm     84% 0.00in /  0mm
19:25 59.0 °F /  15 °C 54.5 °F /  12.5 °C 30.10in /  1019.2hPa Calm     85% 0.00in /  0mm
19:30 59.0 °F /  15 °C 54.5 °F /  12.5 °C 30.10in /  1019.2hPa Calm     85% 0.00in /  0mm
19:35 58.6 °F /  14.8 °C 54.4 °F /  12.4 °C 30.10in /  1019.2hPa Calm     86% 0.00in /  0mm
19:40 58.4 °F /  14.7 °C 54.2 °F /  12.3 °C 30.10in /  1019.2hPa Calm     86% 0.00in /  0mm
19:45 58.3 °F /  14.6 °C 54.5 °F /  12.5 °C 30.10in /  1019.2hPa Calm     87% 0.00in /  0mm
19:50 58.3 °F /  14.6 °C 54.8 °F /  12.7 °C 30.10in /  1019.2hPa Calm   3.0mph /  4.8km/h 88% 0.00in /  0mm
19:55 58.1 °F /  14.5 °C 54.6 °F /  12.6 °C 30.10in /  1019.2hPa Calm   3.0mph /  4.8km/h 88% 0.00in /  0mm
20:00 58.2 °F /  14.6 °C 54.7 °F /  12.6 °C 30.10in /  1019.2hPa Calm   1.0mph /  1.6km/h 88% 0.00in /  0mm
20:05 58.2 °F /  14.6 °C 54.7 °F /  12.6 °C 30.10in /  1019.2hPa Calm   1.0mph /  1.6km/h 88% 0.00in /  0mm
20:10 58.3 °F /  14.6 °C 54.8 °F /  12.7 °C 30.10in /  1019.2hPa Calm   3.0mph /  4.8km/h 88% 0.00in /  0mm
20:20 58.5 °F /  14.7 °C 55.0 °F /  12.8 °C 30.10in /  1019.2hPa Calm     88% 0.00in /  0mm
20:25 58.4 °F /  14.7 °C 54.5 °F /  12.5 °C 30.10in /  1019.2hPa Calm   2.0mph /  3.2km/h 87% 0.00in /  0mm
20:30 58.3 °F /  14.6 °C 54.5 °F /  12.5 °C 30.10in /  1019.2hPa Calm   2.0mph /  3.2km/h 87% 0.00in /  0mm
20:35 58.3 °F /  14.6 °C 54.1 °F /  12.3 °C 30.10in /  1019.2hPa Calm   1.0mph /  1.6km/h 86% 0.00in /  0mm
20:45 58.3 °F /  14.6 °C 54.1 °F /  12.3 °C 30.10in /  1019.2hPa Calm   3.0mph /  4.8km/h 86% 0.00in /  0mm
20:50 58.3 °F /  14.6 °C 53.8 °F /  12.1 °C 30.10in /  1019.2hPa Calm   3.0mph /  4.8km/h 85% 0.00in /  0mm
20:55 58.4 °F /  14.7 °C 53.9 °F /  12.2 °C 30.09in /  1018.8hPa Calm   1.0mph /  1.6km/h 85% 0.00in /  0mm
21:00 58.3 °F /  14.6 °C 53.8 °F /  12.1 °C 30.10in /  1019.2hPa Calm   1.0mph /  1.6km/h 85% 0.00in /  0mm
21:05 57.9 °F /  14.4 °C 53.4 °F /  11.9 °C 30.09in /  1018.8hPa Calm     85% 0.00in /  0mm
21:10 57.6 °F /  14.2 °C 53.1 °F /  11.7 °C 30.09in /  1018.8hPa Calm     85% 0.00in /  0mm
21:15 57.4 °F /  14.1 °C 53.3 °F /  11.8 °C 30.09in /  1018.8hPa Calm     86% 0.00in /  0mm
21:20 57.2 °F /  14 °C 53.1 °F /  11.7 °C 30.09in /  1018.8hPa Calm     86% 0.00in /  0mm
21:25 57.1 °F /  13.9 °C 53.0 °F /  11.7 °C 30.09in /  1018.8hPa Calm     86% 0.00in /  0mm
21:30 57.2 °F /  14 °C 53.1 °F /  11.7 °C 30.09in /  1018.8hPa Calm     86% 0.00in /  0mm
21:35 57.1 °F /  13.9 °C 53.0 °F /  11.7 °C 30.09in /  1018.8hPa Calm     86% 0.00in /  0mm
21:45 56.9 °F /  13.8 °C 52.8 °F /  11.6 °C 30.09in /  1018.8hPa Calm   3.0mph /  4.8km/h 86% 0.00in /  0mm
21:50 56.8 °F /  13.8 °C 52.7 °F /  11.5 °C 30.09in /  1018.8hPa Calm   2.0mph /  3.2km/h 86% 0.00in /  0mm
21:55 56.6 °F /  13.7 °C 52.5 °F /  11.4 °C 30.09in /  1018.8hPa Calm     86% 0.00in /  0mm
22:00 56.4 °F /  13.6 °C 52.3 °F /  11.3 °C 30.09in /  1018.8hPa Calm     86% 0.00in /  0mm
22:05 56.1 °F /  13.4 °C 52.3 °F /  11.3 °C 30.09in /  1018.8hPa Calm     87% 0.00in /  0mm
22:10 55.9 °F /  13.3 °C 52.1 °F /  11.2 °C 30.09in /  1018.8hPa Calm     87% 0.00in /  0mm
22:15 55.8 °F /  13.2 °C 52.3 °F /  11.3 °C 30.09in /  1018.8hPa Calm     88% 0.00in /  0mm
22:20 55.9 °F /  13.3 °C 52.7 °F /  11.5 °C 30.09in /  1018.8hPa Calm     89% 0.00in /  0mm
22:25 55.9 °F /  13.3 °C 52.7 °F /  11.5 °C 30.09in /  1018.8hPa Calm     89% 0.00in /  0mm
22:30 55.7 °F /  13.2 °C 52.5 °F /  11.4 °C 30.08in /  1018.5hPa Calm     89% 0.00in /  0mm
22:35 55.6 °F /  13.1 °C 52.4 °F /  11.3 °C 30.08in /  1018.5hPa Calm     89% 0.00in /  0mm
22:40 55.8 °F /  13.2 °C 52.9 °F /  11.6 °C 30.08in /  1018.5hPa SSW 1.0mph /  1.6km/h 4.0mph /  6.4km/h 90% 0.00in /  0mm
22:45 56.2 °F /  13.4 °C 53.3 °F /  11.8 °C 30.08in /  1018.5hPa Calm   7.0mph /  11.3km/h 90% 0.00in /  0mm
22:55 57.3 °F /  14.1 °C 54.7 °F /  12.6 °C 30.08in /  1018.5hPa Calm   5.0mph /  8km/h 91% 0.00in /  0mm
23:00 58.3 °F /  14.6 °C 55.4 °F /  13 °C 30.08in /  1018.5hPa SSW 1.0mph /  1.6km/h 7.0mph /  11.3km/h 90% 0.00in /  0mm
23:05 59.0 °F /  15 °C 55.8 °F /  13.2 °C 30.08in /  1018.5hPa SSW 1.0mph /  1.6km/h 7.0mph /  11.3km/h 89% 0.00in /  0mm
23:10 59.0 °F /  15 °C 55.5 °F /  13.1 °C 30.08in /  1018.5hPa Calm   4.0mph /  6.4km/h 88% 0.00in /  0mm
23:15 59.3 °F /  15.2 °C 55.4 °F /  13 °C 30.08in /  1018.5hPa Calm   1.0mph /  1.6km/h 87% 0.00in /  0mm
23:20 59.3 °F /  15.2 °C 55.4 °F /  13 °C 30.08in /  1018.5hPa Calm   1.0mph /  1.6km/h 87% 0.00in /  0mm
23:25 59.3 °F /  15.2 °C 55.4 °F /  13 °C 30.08in /  1018.5hPa Calm   1.0mph /  1.6km/h 87% 0.00in /  0mm
23:30 59.4 °F /  15.2 °C 55.8 °F /  13.2 °C 30.08in /  1018.5hPa Calm   2.0mph /  3.2km/h 88% 0.00in /  0mm
23:35 59.8 °F /  15.4 °C 56.2 °F /  13.4 °C 30.08in /  1018.5hPa SW 3.0mph /  4.8km/h 6.0mph /  9.7km/h 88% 0.00in /  0mm
23:40 60.5 °F /  15.8 °C 56.9 °F /  13.8 °C 30.08in /  1018.5hPa Calm   6.0mph /  9.7km/h 88% 0.00in /  0mm
23:45 60.9 °F /  16.1 °C 57.0 °F /  13.9 °C 30.08in /  1018.5hPa SSW 1.0mph /  1.6km/h 5.0mph /  8km/h 87% 0.00in /  0mm
23:50 61.2 °F /  16.2 °C 57.3 °F /  14.1 °C 30.08in /  1018.5hPa Calm   5.0mph /  8km/h 87% 0.00in /  0mm
23:55 61.3 °F /  16.3 °C 57.4 °F /  14.1 °C 30.08in /  1018.5hPa Calm   4.0mph /  6.4km/h 87% 0.00in /  0mm
Westford Weather
Compliments of Weather Underground

 
 
Current Radar Loop:

Copyright © WestfordWeather.net 2007-2014. All rights reserved.